Holden Beach, North Carolina
Current Conditions -  °F | °C
As of 10:35 PM on Sunday 23 Nov 2014 (Local Time) from KSUT Reporting Station
Heavy Rain Heavy Rain  
Wind Chill: 66°   Ceiling: 4700
Heat Index: 66°   Visibility: 2.5mi
Dew Point: 64°   Wind: 12mph
Humidity: 96%   Direction: 150°SSE
Pressure: 29.85"   Gusts: 24mph
Location:  34.0499°N, 78.3076°W
Report Text: KSUT 240335Z AUTO 15010G21KT 2 1/2SM +RA SCT014 BKN047 OVC060 19/18 A2985 RMK AO2 P0007 T01870180
Loading
Personal Weather Stations






























Interactive Weather Map New forecast layout! Learn more

10-Day Weather Forecast

Advertisements
Track Severe Weather on mobile